the time You need

Frasassi MTB Race

Genga, Ancona   Italy

domenica 25 marzo 2018

Percorsi

POINT TO POINT - 42.0 Km

 

XCO - 12.0 Km

 

CICLOTURISTICO - 27.0 Km

 

EBIKE - 22.0 Km

Servizi

Punti KS RankingIscrizioni Attive

Chip

Daily Chip

Circuiti

Bike Tour Coppa Marche

Ente

FCI

Expert

Referente Iscrizioni: Marco Belardinelli

CLASSIFICA

POINT TO POINT - 42.0 Km

Pos Atleta Sesso Cat PosC Team Tempo Media RTime
211 SACCUTELLI VITTORIO M M2 39 ASD BIKE M. AZZURRI 03:37:07.04 11,61 03:36:16.16
209 LUZIETTI GIANLUCA M M2 38 VELO CLUB CICLI CINGOLANI A.S.D. 03:33:13.06 11,82 03:32:41.41
210 GRASSI MICHELE M M4 36 A.S.D. WAYPOINT MTB FILOTTRANO 03:36:37.80 11,63 03:36:16.00
207 MESCHINI ANDREA M M3 34 ASD BIKE CLUB CAFE´ 03:32:06.57 11,88 03:31:19.19
208 BALEANI MATTEO M ELMT 13 ASD WAYPOINT MTB FILOTTRANO 03:33:09.06 11,82 03:32:46.46
206 CINTI ROSSANO M M3 33 ASD KTM MONKEY BIKE 03:31:24.83 11,92 03:30:37.23
205 BALDINI GIACOMO M M4 35 A.S.D. LE VE´LO 03:28:46.35 12,07 03:27:49.49
203 CONTI MARTINA F DONN 6 ASD MONKEY BIKE 03:24:59.62 12,29 03:24:30.02
204 MARCHETTI SONIA F DONN 7 A.S.D. CRAZY BIKE 03:27:55.61 12,12 03:27:29.51
202 GIACHETTI MASSIMO M M4 34 ASS.SPORT. DILETT. BIKERS ROCK N´ROAD 03:24:10.39 12,34 03:23:36.29
200 CASTELLI FABRIZIO M M6 12 ASD BIKE M. AZZURRI 03:24:07.63 12,35 03:23:27.27
201 TUZZI ANTONELLO M M5 22 BICI CLUB SIBILLINI 03:24:08.38 12,34 03:23:33.33
199 GIGLI ROBERTO M M4 33 A.S.D. WAYPOINT MTB FILOTTRANO 03:20:39.17 12,56 03:20:05.05
198 CURZI MARCO M M3 32 A.S.D. PEDALE LENTO STELLA 03:20:00.66 12,60 03:19:15.15
197 CAMILLETTI GIULIO M M1 23 CICLI ROSSINI 03:18:08.17 12,72 03:17:24.07
196 SABBATINI ANDREA M M1 22 VELO CLUB CICLI CINGOLANI A.S.D. 03:15:21.20 12,90 03:14:54.54
195 BATTESTINI MARCELLO M M5 21 A.S.D. G.C. AVIS SASSOFERRATO 03:14:51.69 12,93 03:14:13.09
194 GRAMACCINI LUCA M M4 32 PEDALE CIVITANOVESE 03:14:28.45 12,96 03:13:42.42
192 BRUGNOLI FRANCESCO M M3 31 A.S.D. WAY POINT MTB 03:10:47.47 13,21 03:10:13.17
193 GIULI ROBERTO M M5 20 ASD ALTA VALLE DEL POTENZA 03:11:15.47 13,18 03:10:42.47
190 BAGNOLI MARCO M M1 21 VELO CLUB CICLI CINGOLANI A.S.D. 03:09:48.98 13,28 03:09:17.18
191 PONTE MARCO M M5 19 ASSOCIAZIONE SPORTIVA DILETTANTISTICA CRAZY BIKE 03:10:39.47 13,22 03:10:15.17
189 BALDASSARRI ROMANO M M5 18 A.S.D. GRUPPO CICLISTICO MATELICA 03:08:32.49 13,37 03:08:09.39
188 BALDELLA MARCO M M3 30 A.S.D. BIKER IN LIBERTA´ 03:08:18.00 13,38 03:07:36.36
187 CARNEVALI SAURO M M5 17 A.S.D.BIKERS ROCK N´ROAD 03:08:17.75 13,38 03:07:21.21
186 CAPUANI ROBERTO M M2 37 ASD BIKER IN LIBERTA´ 03:08:17.49 13,38 03:07:37.39
185 DI GIOVACCHINO GABRIELE M M2 36 A.S.D. MISTERBICI FABRIANO 03:07:38.00 13,43 03:06:59.59
183 BUTTAFUOCO ANDREA M M5 16 ASD BIKE M. AZZURRI 03:05:08.77 13,61 03:04:32.17
184 VERDINI SAURO M M6 11 A.S.D. G.C. AVIS SASSOFERRATO 03:06:06.01 13,54 03:05:29.29
182 STRABBIOLI LUCA M M4 31 VELO CLUB CICLI CINGOLANI A.S.D. 03:04:49.52 13,64 03:04:11.11
181 GIORDANI LUIGINO M M5 15 ASD GRUPPO CICLISTICO MATELICA 03:03:35.54 13,73 03:02:49.49
180 MOSCA MARIO M M6 10 ASD BIKE TEAM MONTI AZZURRI 03:03:31.78 13,73 03:03:16.68
178 VERDENELLI CESARE M M4 30 A.S.D. WAYPOINT MTB FILOTTRANO 03:00:54.30 13,93 03:00:30.30
179 ROSSINI LEONARDO M M2 35 ASD ENERGIA BARBARA 03:03:11.03 13,76 03:02:41.41
177 BOSSI FABRIZIO M M2 34 VELO CLUB CICLI CINGOLANI A.S.D. 03:00:01.55 14,00 02:59:41.41
176 TESTA LUCA M OPEN 17 MONDOBICI 02:59:55.55 14,01 02:59:45.45
175 CUCCARINI DIEGO M M1 20 VELO CLUB CICLI CINGOLANI A.S.D. 02:59:30.05 14,04 02:58:57.57
174 GIOVINE SABINO M M1 19 A. S. DILETTANTISTICA MTB Y2K PORTO RECANATI 02:59:25.56 14,05 02:58:47.26
173 CHIORRINI GIACOMO M ELMT 12 A.S.D. WAYPOINT MTB FILOTTRANO 02:59:24.30 14,05 02:59:01.00
171 MANCINI ROBERTO M M4 29 BIKE THERAPY A.S.D. 02:58:56.06 14,08 02:58:11.11
172 ANGELETTI RICCARDO M M1 18 A.S.D. GRUPPO CICLISTICO MATELICA 02:59:13.56 14,06 02:58:51.51
169 MENGHINI LUIGI M M2 33 ASD TEAM GIULIIODORI 02:58:12.31 14,14 02:57:26.01
170 MEZZABOTTA DANIELE M M3 29 ASSOCIAZIONE SPORTIVA DILETTANTISTICA CRAZY BIKE 02:58:42.31 14,10 02:58:10.01
167 GIOVANNINI ZEFFERINO M M7+ 3 A.S.D. I MUFLONI RACING TEAM 02:58:03.06 14,15 02:57:50.50
166 PADELLA FRANCESCO M M2 31 ASD TEAM GIULIODORI RENZO BIKE CLUB CAFE´ 02:58:00.57 14,16 02:57:31.47
165 STARNATORI ANDREA M M3 28 ASD CINGHIALI SERRA SAN QUIRICO 02:57:47.82 14,17 02:57:04.52
164 PASQUALI CORRADO M M4 28 ASD BIKE MONTI AZZURRI 02:57:47.57 14,17 02:57:47.57
162 MALAVOLTA ANDREA M M2 30 ASD M. GEMELLI BIKE 02:54:59.84 14,40 02:54:20.74
163 ROSSINI PIETRO GIUSEPPE M M1 17 A.S.D. EN.IA BARBARA 02:55:26.58 14,36 02:54:49.49
161 BIONDI GIANLUCA M M4 27 A.S. DIL. PEDALE AGUGLIANESE 02:54:34.59 14,44 02:53:48.49
160 CIONNA FRANCESCO M M1 16 CONERO FREE BIKE 02:54:01.34 14,48 02:53:31.24
159 STOPPONI MAURO M M3 27 ASD PEDALE STRACCO FABRIANO 02:53:27.35 14,53 02:52:38.25
156 CANULLO FRANCESCO M M2 28 ASD G.S. AVIS BIKE CLUB CINGOLI 02:51:44.12 14,67 02:51:03.03
158 CAPPARRUCCINI LUCA M M2 29 ASD BIKERS ROCK N´ROAD 02:53:13.35 14,55 02:52:41.41
157 BRACACCINI ROBERTO M M4 26 A.S.D. WAYPOINT MTB FILOTTRANO 02:52:41.61 14,59 02:52:17.31
155 POLINORI FLAVIANO M M6 9 VELO C.CICLI CINGOLANI A.S.D. 02:51:43.11 14,68 02:50:55.55
154 NORI DIEGO M M3 26 GREEN BIKE ALE´.CI 02:49:55.89 14,83 02:49:16.79
152 CORSALINI MICHELE M M1 15 ASD TEAM GIULIODORI RENZO 02:49:55.37 14,83 02:49:29.27
153 SORCI ALESSANDRO M M4 25 VELO CLUB CICLI CINGOLANI A.S.D. 02:49:55.38 14,83 02:49:34.08
150 VITTORI MARCO M M1 14 STELLA BIKE S.S.D. A R.L. 02:49:43.37 14,85 02:49:10.37
151 CERVELLA ANDREA M M4 24 A.S.D.C. VALLE DEL CONCA NORDIC WALKING 02:49:52.12 14,84 02:49:02.02
149 COREANI SANDY M ELMT 11 A.S.D. ENERGIA BARBARA 02:49:27.63 14,87 02:48:36.36
148 GIUSTI GIOVANNI M M5 14 ASD M. GEMELLI BIKE 02:49:25.38 14,87 02:48:47.08
147 PANDOLFI LORENZO M M2 27 A.S.D. MISTERBICI FABRIANO 02:49:17.65 14,89 02:48:39.05
146 BORIA GIORGIO M M2 26 A.S.D. ENERGIA BARBARA 02:49:17.38 14,89 02:48:41.41
145 PARRELLA VINCENZO M M6 8 S.C. VILLAFRANCA 02:49:16.88 14,89 02:48:39.08
144 FABBRI CRISTIANO M M4 23 GS VALCONCA 02:48:57.88 14,92 02:48:07.58
142 DI CINTIO JONNI M M3 25 A.S.D. BIKER IN LIBERTA´ 02:46:52.89 15,10 02:46:07.89
143 CESETTI PAOLO M M5 13 ASD BIKE TEAM MONTI AZZURRI 02:47:19.89 15,06 02:46:46.39
141 CROCI ANDREA M M4 22 A.S.D. BIKER IN LIBERTA´ 02:46:51.64 15,10 02:46:07.07
139 ANTOGNOLI GILBERTO M M6 7 GREN BIKE ALE 02:46:32.65 15,13 02:45:55.05
138 GIACCHETTA GIORGIO MARIA M M2 25 ASD WAYPOINT MTB FILOTTRANO 02:44:45.41 15,30 02:44:23.11
137 CARBINI LUCIA F DONN 5 ASD ENERGIA BARBARA 02:44:09.16 15,35 02:43:51.51
136 ISIDORI GIAMPIERO M M4 20 FOLGORE BIKE TEAM 02:42:50.93 15,48 02:42:19.83
135 VALENTINI EMILIANO M M2 24 ASD GRUPPO CICLISTICO MATELICA 02:42:28.93 15,51 02:41:59.13
134 MANGIALARDO VINICIO M M3 24 ASD KTM MONKEY BIKE 02:41:44.93 15,58 02:40:57.13
133 MILOZZI PIERO M M4 19 ASD BIKE M. AZZURRI 02:41:33.93 15,60 02:40:42.63
132 GIULIANELLI MARIO M M7+ 2 A.S.D. G.S. MONDOBICI 02:40:59.19 15,65 02:40:39.39
131 CAPOTONDI PAOLO M M3 23 A.S.D. GRUPPO CICLISTICO MATELICA 02:40:08.94 15,74 02:39:46.64
130 FRANCESCHINI ANDREA M M5 12 VELO C.CICLI CINGOLANI A.S.D. 02:39:30.20 15,80 02:39:09.10
129 BACALONI ALESSANDRO M M1 13 ASS.SPORT. DILETT. BIKERS ROCK N´ROAD 02:39:16.45 15,82 02:38:39.35
128 VITALI FRANCESCO M M2 23 ASD BIKE TEAM MONTI AZZURRI 02:39:15.45 15,82 02:38:49.49
127 GURRIERI GIACOMO M M2 22 ASD CICLI COPPARO LIOTTO 02:38:36.70 15,89 02:37:48.60
125 GAMBELLA DAVID M M4 18 ASD BIKERS ROCK N´ROAD 02:37:30.47 16,00 02:37:15.15
126 LIBERATI MILO M M2 21 A.S.D. JUMP TEAM S.CROCE BIKERS S. ELPIDIO A MARE 02:37:32.21 16,00 02:37:09.09
124 CALVIGIONI ROBERTO M M4 17 ASD VIRGINIA BIKE 02:37:26.46 16,01 02:37:02.02
123 BARBARESI RENATO M M6 6 A.S.D. GRUPPO SPORTIVO MONDOBICI 02:37:20.96 16,02 02:37:06.86
122 ABBRUCIATI LUCA M M5 11 VELO CLUB CICLI CINGOLANI A.S.D. 02:37:11.46 16,03 02:36:38.46
121 CARLETTI DAVIDE M M1 12 ASD G.S. AVIS BIKE CLUB CINGOLI 02:37:07.46 16,04 02:36:40.16
119 MICHELI MAURO M M2 20 A.S.D. GRUPPO CICLISTICO MATELICA 02:36:59.73 16,05 02:36:24.24
120 CECI LUCA M M3 22 A.S.D. WAYPOINT MTB FILOTTRANO 02:37:00.97 16,05 02:36:35.67
118 PIERLUIGI FABRIZIO M M3 21 STELLA BIKE S.S.D. A R.L. 02:36:58.71 16,05 02:36:28.41
117 RE ADAMO M M7+ 1 ASD BIKER IN LIBERTA´ 02:36:41.47 16,08 02:36:07.17
115 MACCULI SAMUEL M JU 5 ASD POLISPORTIVA MORROVALLESE 02:36:16.23 16,13 02:36:05.13
116 FRANCESCONI GIORGIO M M2 19 BIKE THERAPY A.S.D. 02:36:18.22 16,12 02:35:33.33
114 SCONOCCHINI ANDREA M M2 18 ASD CINGHIALI SERRA SAN QUIRICO 02:36:05.47 16,15 02:35:25.17
113 BERARDI GIORGIO M M3 20 VELO CLUB CICLI CINGOLANI A.S.D. 02:36:03.97 16,15 02:35:29.47
112 SCORTECHINI FRANCESCO M M1 11 AVIS BIKE CINGOLI 02:34:51.48 16,27 02:34:17.17
111 OLIVI ALESSIO M M6 5 VELO C.CICLI CINGOLANI A.S.D. 02:34:39.48 16,29 02:34:08.08
110 CAMELI GIUSEPPE M M2 17 A.S.D. BIKER IN LIBERTA´ 02:34:07.74 16,35 02:33:25.25
108 MORI MICHELE M JU 4 BIKE THERAPY A.S.D. 02:32:19.25 16,54 02:32:07.25
109 PIANELLI EMANUELE M M2 16 VELO CLUB CICLI CINGOLANI A.S.D. 02:32:43.74 16,50 02:32:12.12
107 SERRANI GRAZIANO M M5 10 VELO CLUB CICLI CINGOLANI A.S.D. 02:31:50.75 16,60 02:31:28.45
106 FIORI JENNIFER F DONN 4 BIKE THERAPY A.S.D. 02:31:15.01 16,66 02:31:03.03
105 RINALDI FRANCESCO M M2 15 BICI ADVENTURE TEAM ASSOCIAZIONE SPORTIVA DILETTAN 02:30:59.26 16,69 02:30:31.26
104 CAMPANARI ANGELA F DONN 3 A.S.D. SUPERBIKE TEAM 02:30:48.26 16,71 02:30:37.16
103 PIZZICHINI MASSIMO M M4 16 A.S.D.BIKERS ROCK N´ROAD 02:30:23.26 16,76 02:29:58.58
102 BARTOLINI MATTEO M M1 10 VELO CLUB CICLI CINGOLANI A.S.D. 02:29:58.27 16,80 02:29:32.32
101 BROCANELLI GIORDANO M M3 19 ASD CINGHIALI SERRA SAN QUIRICO 02:28:45.77 16,94 02:28:06.67
100 GRIFI SARA F DONN 2 A.S.D. G.C. CAPODARCO - COMUNITA´ DI CAPODARCO 02:28:06.53 17,02 02:27:54.54
98 BULGARINI JURI M M3 18 A.S.D. WAYPOINT MTB FILOTTRANO 02:27:09.80 17,13 02:26:49.20
99 CHITARRONI PAOLO M M1 9 ASSOCIAZIONE SPORTIVA DILETTANTISTICA CRAZY BIKE 02:27:11.79 17,12 02:26:46.46
97 TALOZZI FEDERICO M M4 15 A.S.D. I MUFLONI RACING TEAM 02:26:42.29 17,18 02:26:25.25
95 MINUCCI MICHELE M OPEN 16 VELO CLUB CICLI CINGOLANI A.S.D. 02:26:18.54 17,22 02:26:06.04
96 SERAFINI STEFAN M M3 17 A.S.D. MISTERBICI FABRIANO 02:26:33.29 17,20 02:26:09.09
93 PANFOLI GIORDANO M M2 13 VELO CLUB CICLI CINGOLANI A.S.D. 02:24:27.57 17,45 02:23:59.59
94 PACCUSSE DAMIANO M M2 14 ASD RUOTA LIBERA MOIE 02:24:59.30 17,38 02:24:31.31
92 RIDOLFI MORENO M M6 4 BICI ADVENTURE TEAM ASSOCIAZIONE SPORTIVA DILETTAN 02:24:27.31 17,45 02:23:55.55
91 BALDUCCI GIORGIO M M5 9 ASD TEAM BIKE LUNANO 02:24:26.30 17,45 02:24:07.07
88 LENTI ALESSIO M JU 3 A.S.D. SUPERBIKE TEAM 02:23:35.31 17,55 02:23:27.27
90 SPITONI ANDREA M M3 16 BICI ADVENTURE TEAM ASSOCIAZIONE SPORTIVA DILETTAN 02:24:25.05 17,45 02:23:43.05
89 GIANCARLO SILVESTRI M M5 8 ASD TEAM BIKE LUNANO 02:24:09.31 17,48 02:23:47.47
87 SCHIAROLI MARCO M M2 12 VELO CLUB CICLI CINGOLANI A.S.D. 02:23:12.82 17,60 02:22:48.52
84 GENTILUOMO DOMENICO M M6 3 PASSATEMPO CYCLING TEAM ASD 02:21:49.82 17,77 02:21:27.22
85 FORCONI GIACOMO M ELMT 10 GF RACING 02:22:43.32 17,66 02:22:08.08
86 MARILUNGO ANDREA M M5 7 A.S.D. CRAZY BIKE 02:23:12.32 17,60 02:22:47.02
83 PAOLETTI DANIEL M ELMT 9 PASSATEMPO CYCLING TEAM ASD 02:21:43.82 17,78 02:21:28.52
82 LORI CLAUDIO M M3 15 A.S.D. MISTERBICI FABRIANO 02:20:30.33 17,94 02:20:14.14
81 CASTRATORI LUCA M M2 11 BIKE THERAPY ASD 02:20:29.33 17,94 02:20:09.03
79 ANGELETTI DAVID M M4 13 ASD ITAUCTION TEAM 02:20:27.84 17,94 02:19:46.24
80 MARIOTTI M. FRANCESCO M M4 14 TEAM CINGOLANI 02:20:28.08 17,94 02:20:10.10
78 MARTELLA ALFREDO M M3 14 MC2 BIKE 02:20:27.83 17,94 02:20:08.03
76 STEFANELLI DANIELA F DONN 1 VELO CLUB CICLI CINGOLANI A.S.D. 02:20:26.08 17,94 02:20:14.14
77 VERDINI TOMMASO M M2 10 VELO CLUB CICLI CINGOLANI A.S.D. 02:20:27.34 17,94 02:19:55.55
75 BUFARINI NAZZARENO M M5 6 VELO CLUB CICLI CINGOLANI A.S.D. 02:19:45.09 18,03 02:19:19.19
74 SPADONI GABRIELE M M3 13 ASD ENERGIA BARBARA 02:18:22.85 18,21 02:18:03.75
73 TOMASSINI GRAZIANO M M4 12 ASD VIRGINIA BIKE 02:17:54.60 18,27 02:17:27.00
72 PACCAZZOCCO LUCA M M1 8 ASS.SPORT. DILETT. BIKERS ROCK N´ROAD 02:17:51.10 18,28 02:17:22.00
70 GIOMBETTI GIANCARLO M M4 11 VELO CLUB CICLI CINGOLANI A.S.D. 02:17:50.00 18,28 02:17:50.00
71 CATALANI MATTEO M M3 12 ASSOCIAZIONE SPORTIVA DILETTANTISTICA CRAZY BIKE 02:17:50.60 18,28 02:17:29.30
69 FORNASARI MIRKO M M5 5 FRM FACTORY RACING TEAM 02:16:52.61 18,41 02:16:28.51
67 RICCIONI MASSIMO M M4 10 A.S.D. GRUPPO CICLISTICO MATELICA 02:14:51.62 18,69 02:14:37.02
68 ORAZI ANDREA M M6 2 VELO CLUB CICLI CINGOLANI A.S.D. 02:16:45.87 18,43 02:16:20.27
66 CHIANURA CARLO M M2 9 A.S.D. GRUPPO CICLISTICO MATELICA 02:14:32.37 18,73 02:14:00.27
65 TASSI LUCA M M4 9 A.S.D. WAYPOINT MTB FILOTTRANO 02:14:24.13 18,75 02:13:56.13
63 ILARI ILARIO M M3 11 ASD CICLI COPPARO 02:14:23.38 18,75 02:14:05.38
64 MORRESI MARCO M ELMT 8 A.S.D. WAYPOINT MTB FILOTTRANO 02:14:23.88 18,75 02:13:53.08
62 PILESI ENRICO M ELMT 7 A.S.D. SUPERBIKE TEAM 02:13:57.38 18,81 02:13:30.08
61 PAOLUCCI GIANUCA M M5 4 ASD TEAM BIKE LUNANO 02:13:56.38 18,82 02:13:40.40
60 MENGHINI GIAMPIERO M M5 3 VELO CLUB CICLI CINGOLANI A.S.D. 02:13:54.88 18,82 02:13:44.78
59 QUERCETTI LEONARDO M ELMT 6 VELO CLUB CICLI CINGOLANI A.S.D. 02:13:29.88 18,88 02:13:02.78
58 MASTRINI MARCO M M3 10 ASD BIKERS NOCERA UMBRA 02:13:26.63 18,89 02:13:11.11
57 PIAGNERELLI MATTEO M M2 8 VELO CLUB CICLI CINGOLANI A.S.D. 02:13:00.64 18,95 02:12:35.34
55 RENZI LUCA M JU 2 A.S.D. SUPERBIKE TEAM 02:12:45.89 18,98 02:12:34.09
56 MAZZIERI MATTIA M M1 7 PASSATEMPO CYCLING TEAM ASD 02:12:45.90 18,98 02:12:28.10
53 PIERANTONI ALESSANDRO M ELMT 5 ASS.SPORT. DILETT. BIKERS ROCK N´ROAD 02:12:25.39 19,03 02:12:04.09
54 PIRANI PAOLO M M6 1 ASS.SPORT. DILETT. BIKERS ROCK N´ROAD 02:12:45.39 18,98 02:12:34.34
52 SASSAROLI DANIELE M M4 8 BICI ADVENTURE TEAM ASSOCIAZIONE SPORTIVA DILETTAN 02:11:56.89 19,10 02:11:36.09
51 SORICHETTI PAOLO M M5 2 A.S.D. NEW MARIO PUPILLI 02:11:52.89 19,11 02:11:39.09
48 BACCHI GIANLUCA M M2 7 ASS.SPORT. DILETT. BIKERS ROCK N´ROAD 02:10:49.40 19,26 02:10:31.31
50 GIULIETTI DIEGO M OPEN 15 A.S.D. SUPERBIKE TEAM 02:11:07.65 19,22 02:10:56.35
49 PLENZICH REMILIANO M M4 7 MONDO BICI TECN. 02:11:03.65 19,23 02:10:44.35
47 TADEI MICHELE M M2 6 GREEN BIKE ALE´.CI 02:10:38.90 19,29 02:10:02.80
46 TONTARELLI PIERPAOLO M M4 6 A.S.D. SUPERBIKE TEAM 02:10:17.91 19,34 02:09:50.61
45 PRINCIPI LUCA M M3 9 ARES BIKE TEAM 02:10:13.66 19,35 02:09:54.36
43 QUADRINI PIERLUIGI M M4 5 ASS.SPORT. DILETT. BIKERS ROCK N´ROAD 02:08:54.91 19,55 02:08:40.11
44 MARINCIONI GIORGIO M ELMT 4 BIKE THERAPY A.S.D. 02:09:04.91 19,52 02:08:52.11
42 PASCUCCI PIERPAOLO M M3 8 BICI ADVENTURE TEAM ASSOCIAZIONE SPORTIVA DILETTAN 02:08:20.17 19,64 02:07:44.44
41 CORINALDESI SIMONE M M3 7 VELO CLUB CICLI CINGOLANI A.S.D. 02:08:19.92 19,64 02:08:01.62
39 ARINGOLO LORENZO M OPEN 14 A.S.D. SUPERBIKE TEAM 02:07:10.93 19,82 02:07:00.33
40 MARANI MASSIMO M M3 6 BICI ADVENTURE TEAM ASSOCIAZIONE SPORTIVA DILETTAN 02:07:11.93 19,81 02:06:36.83
37 DELLABIANCIA MATTEO M OPEN 13 360 BIKE TEAM 02:07:08.19 19,82 02:07:00.00
38 BIONDI MASSIMO M M5 1 A.S.D. GRUPPO SPORTIVO MONDOBICI 02:07:10.43 19,82 02:06:55.33
36 FOSSI MARCO M M2 5 VELO CLUB CICLI CINGOLANI A.S.D. 02:06:24.69 19,94 02:05:59.09
35 DESANTIS ALESSANDRO M OPEN 12 MTB CLUB SPOLETO 02:05:55.44 20,01 02:05:48.14
32 MARIANI ANTONIO M OPEN 11 BIKE THERAPY A.S.D. 02:05:28.20 20,09 02:05:16.20
33 VECCIOLINI FABIO M M3 5 ASD BICIADVENTURE TEAM 02:05:29.69 20,08 02:05:09.09
34 SANTOLINI CRISTIANO M ELMT 3 BICI ADVENTURE TEAM ASSOCIAZIONE SPORTIVA DILETTAN 02:05:37.69 20,06 02:05:15.09
31 CATALDI ALESSANDRO M OPEN 10 ASS.SPORT. DILETT. BIKERS ROCK N´ROAD 02:05:27.70 20,09 02:05:16.10
30 CIARROCCHI DAVID M M2 4 ARES BIKE TEAM 02:05:27.69 20,09 02:04:42.39
27 ROSSINI GIORGIO M M2 3 ASSOCIAZIONE SPORTIVA DILETTANTISTICA CRAZY BIKE 02:02:36.97 20,55 02:02:18.67
29 GAMBELLI MASSIMO M M4 4 VELO CLUB CICLI CINGOLANI A.S.D. 02:03:28.70 20,41 02:03:13.10
28 BOCCALI ANGELO M M4 3 A.S.D. GRUPPO SPORTIVO MONDOBICI 02:02:43.71 20,54 02:02:27.41
26 VITALI ALBERTO M M4 2 TEAM CINGOLANI 02:02:34.22 20,56 02:02:23.23
23 BRUE´ NICOLA M ELMT 2 ASS.SPORT. DILETT. BIKERS ROCK N´ROAD 01:59:41.98 21,06 01:59:22.18
168 BATTISTELLI MICHELE M M2 32 A.S.D. WAYPOINT MTB FILOTTRANO 02:58:10.56 14,14 02:57:42.56
140 CORINALÒDESI CLAUDIO M M4 21 FALCO RACING 02:46:35.15 15,13 02:45:47.47
24 GIROTTI LORENZO M JU 1 A.S.D. SUPERBIKE TEAM 02:01:21.97 20,77 02:01:11.87
22 MORONCI CLAUDIO M M1 6 BIKE THERAPY A.S.D. 01:59:23.48 21,11 01:59:08.08
21 GAROFALO LUCA M M3 3 BICI ADVENTURE TEAM ASSOCIAZIONE SPORTIVA DILETTAN 01:59:14.48 21,14 01:58:59.59
20 SANTELLI GIUSEPPE M M4 1 VELO CLUB CICLI CINGOLANI A.S.D. 01:58:28.99 21,27 01:58:15.39
18 BIZZARRI STEFANO M M1 4 VELO CLUB CICLI CINGOLANI A.S.D. 01:57:59.99 21,36 01:57:42.39
19 GATTONI LUCA M M1 5 A.S.D. GRUPPO SPORTIVO MONDOBICI 01:58:14.00 21,31 01:57:54.54
17 DI MARCO DAVIDE M OPEN 9 RACE MOUNTAIN FOLCARELLI TEAM 01:57:39.25 21,42 01:57:30.30
16 TIBERI ENRICO M M2 2 A.S.D. GRUPPO SPORTIVO MONDOBICI 01:57:07.00 21,52 01:56:52.52
14 GHISELLI MICHELE M M3 2 A.S.D. I MUFLONI RACING TEAM 01:56:22.01 21,66 01:56:05.05
15 CODONI LUCA M OPEN 8 A.S.D. G.C. CAPODARCO - COMUNITA´ DI CAPODARCO 01:56:33.25 21,62 01:56:21.25
13 RAFFAELLI SAMUELE M M3 1 ASD H30 RACE TEAM 01:54:52.77 21,94 01:54:38.67
12 MARINCIONI DIEGO M ELMT 1 PASSATEMPO CYCLING TEAM ASD 01:54:10.52 22,07 01:53:57.22
11 GIORGINI DAVIDE M OPEN 7 BIKEPRO FIRST CAR MTB TEAM 01:52:18.53 22,44 01:52:18.53
10 LUCERTONI DAVID M M1 3 ASS.SPORT. DILETT. BIKERS ROCK N´ROAD 01:51:21.79 22,63 01:51:07.19
8 VALENTE ALESSANDRO M OPEN 6 BIKEPRO FIRST CAR MTB TEAM 01:50:39.55 22,77 01:50:38.45
9 URBINATI LUCA M M1 2 MONDO BICI TECN. 01:51:21.04 22,63 01:51:07.07
7 ROSSI FEDERICO M M1 1 VELO CLUB CICLI CINGOLANI A.S.D. 01:48:56.81 23,13 01:48:44.01
6 CICCANTI MARCO M OPEN 5 BIKEPRO FIRST CAR MTB TEAM 01:48:44.56 23,18 01:48:44.56
5 CALCAGNI JARNO M M2 1 FUNCTIONAL FIT 01:48:15.31 23,28 01:48:00.01
4 ANGELETTI MICHELE M OPEN 4 BIKE THERAPY A.S.D. 01:48:14.31 23,28 01:48:04.04
3 ROCCHETTI LEOPOLDO M OPEN 3 BIKE THERAPY A.S.D. 01:48:03.31 23,32 01:47:53.01
2 AGOSTINELLI ALESSIO M OPEN 2 A.S.D. SUPERBIKE TEAM 01:47:13.07 23,50 01:47:03.07
25 VIOLINI ROBERTO M M3 4 ASS.SPORT. DILETT. BIKERS ROCK N´ROAD 02:02:09.96 20,63 02:01:51.96
1 PIERPAOLI LORENZO M OPEN 1 VELO CLUB CICLI CINGOLANI A.S.D. 01:46:00.59 23,77 01:46:00.59
Sq. CONTI MICHELE M M4 - ASD CINGHIALI SERRA SAN QUIRICO 02:56:11.58 14,30 02:55:30.48

XCO - 12.0 Km

Pos Atleta Sesso Cat PosC Team Tempo Media RTime
1 RINALDONI DAVID M ES 1 ASD POLISPORTIVA MORROVALLESE 00:27:42.27 25,99 00:15:49.17
2 TORRESI TEODORO M ES 2 ASD POLISPORTIVA MORROVALLESE 00:27:45.52 25,95 00:15:52.22
3 ASCANI MATTIA M ES 3 A.S.D. SUPERBIKE TEAM 00:28:20.51 25,41 00:16:28.28
4 CARNAROLI EMANUELE M ES 4 BIKE THERAPY A.S.D. 00:30:40.50 23,48 00:18:47.47
5 CANNONE GABRIELE M ES 5 A.S.D. GRUPPO CICLISTICO MATELICA 00:31:01.01 23,21 00:19:07.07
6 BUGIOLACCHI MASSIMO M ES 6 RECANATI BIKE TEAM 00:33:23.98 21,57 00:21:30.38
7 ZAMPINI STEFANO M ES 7 A.S.D. GRUPPO CICLISTICO MATELICA 00:35:11.46 20,46 00:23:17.16
8 MARINELLI DILETTA F ED 1 A.S.D. SUPERBIKE TEAM 00:35:11.97 20,46 00:23:17.67
9 NATALI ENRICO M AL 1 ASD POLISPORTIVA MORROVALLESE 00:38:25.69 18,74 00:26:40.09
10 ARINGOLO RICCARDO M AL 2 A.S.D. SUPERBIKE TEAM 00:39:25.68 18,27 00:27:58.58
11 MORO GABRIEL M AL 3 A.S.D. SUPERBIKE TEAM 00:39:26.69 18,26 00:27:42.42
12 PILESI EMANUELE M AL 4 A.S.D. SUPERBIKE TEAM 00:39:55.68 18,04 00:28:20.20
13 CARDELLI MARCO M AL 5 ASD POLISPORTIVA MORROVALLESE 00:39:56.18 18,03 00:28:11.11
14 FIECCHI ANDREA M AL 6 ASS.SPORT. DILETT. BIKERS ROCK N´ROAD 00:40:25.68 17,81 00:28:41.41
15 BIONDI MARTINA F ED 2 A.S.D. SUPERBIKE TEAM 00:41:04.42 17,53 00:29:10.12
16 CLERICO´ GIUSEPPE M AL 7 A.S.D. SUPERBIKE TEAM 00:42:07.91 17,10 00:30:22.31
17 TIANO EDUARDO VINCENZO M AL 8 ASD POLISPORTIVA MORROVALLESE 00:43:17.16 16,63 00:31:31.31
18 MASSACCESI PIETRO M AL 9 A.S.D. SUPERBIKE TEAM 00:43:20.40 16,62 00:31:33.40
19 MARINELLI GABRIELE M AL 10 A.S.D. SUPERBIKE TEAM 00:43:42.90 16,48 00:31:56.90
20 MANGIATERRA NEFELLY F DA 1 A.S.D. SUPERBIKE TEAM 00:43:43.15 16,47 00:31:57.15
21 BELARDINELLI ENEA M AL 11 A.S.D. SUPERBIKE TEAM 00:43:49.66 16,43 00:32:03.03
22 PES GIULIO M AL 12 BIKE THERAPY A.S.D. 00:45:48.89 15,72 00:34:02.59
23 BECCACECE MATTIA M AL 13 ASD POLISPORTIVA MORROVALLESE 00:46:12.64 15,58 00:34:26.04
24 MARINELLI DIEGO M AL 14 A.S.D. SUPERBIKE TEAM 00:46:12.89 15,58 00:34:26.89
25 GALASSI EDOARDO M AL 15 A.S.D. SUPERBIKE TEAM 00:48:07.12 14,96 00:36:20.12
26 LONGO RICCARDO M AL 16 A.S.D.BIKERS ROCK N´ROAD 00:58:40.05 12,27 00:46:54.05
27 PAURI EDOARDO M AL 17 A.S.D. SUPERBIKE TEAM 02:21:44.20 5,08 02:21:44.20
DNF BUGIOLACCHI MASSIMO M ES - RECANATI BIKE TEAM - - -
DNF DURANTI ALESSANDRO M ES - A.S.D. SUPERBIKE TEAM - - -
DNF BISCI MATTEO M ES - A.S.D. GRUPPO CICLISTICO MATELICA - - -

CICLOTURISTICO - 27.0 Km

Pos Atleta Sesso Team Tempo Media RTime
Pos SBEI MATTEO M ASD BIKER IN LIBERTA´ 02:12:56.64 12,19 02:12:18.18
Pos MAGARELLI ENRICO M A.S.D. GRUPPO CICLISTICO MATELICA 02:11:44.90 12,30 02:11:08.50
Pos VOLPINI FRANCESCO M CONERO FREE BIKE 02:07:59.42 12,66 02:07:29.29
Pos PRINCIPI RICCARDO M PASSATEMPO CYCLING TEAM ASD 02:06:12.43 12,84 02:05:49.23
Pos CIUFFETTI DEMIS M A.S.D. GRUPPO CICLISTICO MATELICA 02:02:36.96 13,21 02:01:57.86
Pos DOMIZI ROBERTO M ASS.SPORT. DILETT. BIKERS ROCK N´ROAD 02:02:01.71 13,28 02:01:37.41
Pos CUCCHIARINI RINALDOLUCA M ASD BIKERS NOCERA UMBRA 02:01:21.98 13,35 02:01:03.68
Pos FERRINI FRANCESCO M ASD CINGHIALI SERRA SAN QUIRICO 02:01:19.98 13,35 02:00:37.18
Pos RIGANELLI LUCA M A.S.D. GRUPPO CICLISTICO MATELICA 02:00:58.47 13,39 02:00:43.17
Pos DI VITA FRANCO M A.S.D. G.C. AVIS SASSOFERRATO 02:00:44.97 13,42 02:00:11.47
Pos D´ANGELO SARA F ASSOCIAZIONE SPORTIVA DILETTANTISTICA CRAZY BIKE 02:00:43.47 13,42 02:00:24.17
Pos PARRUCCI MATTEO M BICI ADVENTURE TEAM A.S.D. 01:58:44.74 13,64 01:58:34.14
Pos BROCCOLI SANDRO M MONDO BICI TECN. 01:58:44.49 13,64 01:58:27.27
Pos RE LUCA M ASD BIKER IN LIBERTA´ 01:57:05.50 13,84 01:56:25.40
Pos CIRIACI MATTEO M ASD G.S. AVIS BIKE CLUB CINGOLI 01:57:04.25 13,84 01:56:39.15
Pos MELE GIULIO CIRO M A.S.D. SUPERBIKE TEAM 01:56:52.25 13,86 01:56:41.41
Pos PAZZELLI MICHELE M ASD BIKE M. AZZURRI 01:56:39.01 13,89 01:55:59.59
Pos SCALPELLI GIANLUCA M ASD G.S. AVIS BIKE CLUB CINGOLI 01:56:21.50 13,92 01:55:44.40
Pos DUCA ALESSANDRO M ASSOCIAZIONE SPORTIVA DILETTANTISTICA CRAZY BIKE 01:55:52.26 13,98 01:55:29.29
Pos NICOLETTI DAVIDE M ASSOCIAZIONE SPORTIVA DILETTANTISTICA CRAZY BIKE 01:55:51.02 13,98 01:55:28.28
Pos SQUEO LEONARDO M A.S.D. SUPERBIKE TEAM 01:55:50.01 13,99 01:55:50.01
Pos CAPPELLETTI MAURO M ASD G.S. AVIS BIKE CLUB CINGOLI 01:55:43.51 14,00 01:55:11.11
Pos SPINELLI ANDREA M A.S.D. BIKER IN LIBERTA´ 01:54:24.27 14,16 01:53:43.43
Pos RUSTICHELLI FABRIZIO M ASD BIKERS ROCK N´ROAD 01:54:12.77 14,19 01:53:56.27
Pos TROMBETTA MATTIA M ASD MONKEY BIKE 01:53:46.52 14,24 01:53:19.42
Pos GIOSUE´ SAMUELE M STELLA BIKE S.S.D. A R.L. 01:53:16.78 14,30 01:52:45.18
Pos IACONI FABRIZIO M ASD BIKER IN LIBERTA´ 01:52:51.28 14,36 01:52:09.09
Pos CAMELI EZIO M ASD BIKER IN LIBERTA´ 01:51:27.04 14,54 01:50:47.47
Pos SALVATORI GIACOMO M ASD TEAM GIULIODORI RENZO BIKE CLUB CAFE´ 01:50:10.55 14,70 01:49:42.42
Pos UNCINI ALBERTO M ASD CINGHIALI SERRA SAN QUIRICO 01:47:24.82 15,08 01:46:45.22
Pos BREGA ANDREA M ASD CINGHIALI SERRA SAN QUIRICO 01:46:32.82 15,21 01:45:49.72
Pos CAVALLETTI ANDREA M VELO CLUB CICLI CINGOLANI A.S.D. 01:04:19.38 25,19 01:03:47.28
Pos ROSSINI MIRKO M CICLI ROSSINI 02:19:08.34 11,64 02:18:24.04
Pos CAMPANARO MAURIZIO M CICLI ROSSINI 02:19:10.11 11,64 02:18:26.26
Pos BROCANELLI FABIO M ASD CINGHIALI SERRA SAN QUIRICO 02:27:08.54 11,01 02:26:27.27
Pos CARASSAI GIORDANO M ASD BIKE TEAM MONTI AZZURRI 02:27:11.54 11,01 02:26:25.25
Pos COLONNELLI FRANCESCO M ASD GRUPPO CICLISTICO MATELICA 02:29:15.52 10,85 02:28:45.42
Pos PALMIERI NAZARENO M AVIS BIKE CINGOLI 02:52:47.85 9,38 02:51:51.25
Pos BIANCHETTI JACOPO M AAAAAAAAAAA 03:03:52.27 8,81 03:03:04.17

EBIKE - 22.0 Km

Pos Atleta Sesso Team Tempo Media RTime
Pos BARCHIESI ROBERTO M ASD IT AUCTION TEAM 01:25:53.35 15,37 01:25:53.35
Pos FRATONI DANIELE M AVIS MONTENMARCIANO 01:28:35.58 14,90 01:28:35.58
Pos SONARA DANIELE M ASD LE VE´LO 01:47:49.94 12,24 01:47:49.94
Pos SONARA LUCIANO M ASD LE VE´LO 01:48:54.70 12,12 01:48:54.70